createdAt,value
2017-07-28T00:00:17.805Z,3.60
2017-07-28T00:02:47.045Z,4.40
2017-07-28T00:05:15.916Z,4.30
2017-07-28T00:07:44.974Z,4.33
2017-07-28T00:10:14.907Z,4.50
2017-07-28T00:12:43.943Z,4.27
2017-07-28T00:15:12.606Z,4.07
2017-07-28T00:17:43.877Z,5.40
2017-07-28T00:20:13.383Z,6.17
2017-07-28T00:22:43.784Z,5.43
2017-07-28T00:25:13.127Z,4.67
2017-07-28T00:27:42.227Z,4.80
2017-07-28T00:30:11.133Z,5.17
2017-07-28T00:32:42.023Z,5.07
2017-07-28T00:35:11.580Z,4.17
2017-07-28T00:37:40.743Z,5.70
2017-07-28T00:40:11.693Z,4.43
2017-07-28T00:42:41.893Z,5.17
2017-07-28T00:45:12.059Z,5.60
2017-07-28T00:47:41.772Z,6.17
2017-07-28T00:50:12.595Z,5.37
2017-07-28T00:52:42.027Z,5.13
2017-07-28T00:55:11.307Z,5.63
2017-07-28T00:57:40.650Z,5.20
2017-07-28T01:00:11.004Z,6.00
2017-07-28T01:02:39.843Z,6.10
2017-07-28T01:05:10.645Z,5.90
2017-07-28T01:07:41.653Z,4.63
2017-07-28T01:10:11.497Z,5.53
2017-07-28T01:12:40.400Z,4.63
2017-07-28T01:15:09.168Z,4.40
2017-07-28T01:17:37.905Z,5.80
2017-07-28T01:20:06.293Z,5.47
2017-07-28T01:22:34.600Z,5.37
2017-07-28T01:25:03.769Z,5.97
2017-07-28T01:27:32.869Z,5.10
2017-07-28T01:30:01.255Z,5.57
2017-07-28T01:32:30.514Z,5.13
2017-07-28T01:34:58.843Z,4.50
2017-07-28T01:37:27.173Z,6.70
2017-07-28T01:39:55.849Z,5.63
2017-07-28T01:42:24.188Z,5.17
2017-07-28T01:44:52.586Z,5.70
2017-07-28T01:47:21.800Z,6.47
2017-07-28T01:49:51.363Z,7.60
2017-07-28T01:52:20.663Z,5.50
2017-07-28T01:54:49.459Z,7.17
2017-07-28T01:57:18.280Z,5.30
2017-07-28T01:59:46.826Z,5.57
2017-07-28T02:02:16.339Z,5.90
2017-07-28T02:04:45.871Z,6.30
2017-07-28T02:07:14.697Z,7.23
2017-07-28T02:09:45.062Z,5.97
2017-07-28T02:12:14.273Z,5.77
2017-07-28T02:14:43.167Z,6.50
2017-07-28T02:17:14.369Z,6.40
2017-07-28T02:19:43.217Z,6.90
2017-07-28T02:22:11.899Z,6.97
2017-07-28T02:24:41.029Z,7.17
2017-07-28T02:27:10.940Z,6.70
2017-07-28T02:29:41.274Z,6.83
2017-07-28T02:32:11.339Z,7.20
2017-07-28T02:34:40.788Z,7.23
2017-07-28T02:37:10.347Z,7.87
2017-07-28T02:39:40.370Z,6.97
2017-07-28T02:42:10.056Z,6.60
2017-07-28T02:44:39.705Z,7.40
2017-07-28T02:47:09.888Z,7.67
2017-07-28T02:49:38.591Z,7.90
2017-07-28T02:52:11.277Z,7.63
2017-07-28T02:54:41.299Z,7.10
2017-07-28T02:57:11.342Z,6.63
2017-07-28T02:59:40.526Z,6.40
2017-07-28T03:02:09.289Z,7.80
2017-07-28T03:04:39.216Z,7.43
2017-07-28T03:07:09.024Z,6.67
2017-07-28T03:09:37.580Z,8.10
2017-07-28T03:12:07.244Z,8.23
2017-07-28T03:14:35.593Z,8.60
2017-07-28T03:17:04.682Z,7.80
2017-07-28T03:19:34.115Z,8.30
2017-07-28T03:22:02.441Z,8.43
2017-07-28T03:24:30.777Z,8.03
2017-07-28T03:27:00.050Z,8.00
2017-07-28T03:29:28.380Z,7.13
2017-07-28T03:31:56.721Z,6.77
2017-07-28T03:34:25.711Z,7.20
2017-07-28T03:36:56.052Z,7.60
2017-07-28T03:39:24.533Z,7.73
2017-07-28T03:41:54.781Z,8.43
2017-07-28T03:44:23.323Z,7.50
2017-07-28T03:46:51.916Z,7.50
2017-07-28T03:49:20.940Z,6.87
2017-07-28T03:51:49.678Z,7.70
2017-07-28T03:54:19.853Z,7.90
2017-07-28T03:56:48.964Z,7.90
2017-07-28T03:59:18.547Z,8.60
2017-07-28T04:01:50.217Z,8.47
2017-07-28T04:04:19.158Z,8.20
2017-07-28T04:06:47.785Z,9.83
2017-07-28T04:09:16.674Z,8.07
2017-07-28T04:11:45.647Z,7.77
2017-07-28T04:14:14.446Z,7.00
2017-07-28T04:16:43.938Z,9.00
2017-07-28T04:19:12.654Z,7.60
2017-07-28T04:21:41.613Z,8.43
2017-07-28T04:24:12.534Z,8.03
2017-07-28T04:26:41.460Z,8.03
2017-07-28T04:29:10.989Z,7.73
2017-07-28T04:31:40.876Z,8.20
2017-07-28T04:34:10.443Z,6.67
2017-07-28T04:36:39.502Z,7.37
2017-07-28T04:39:08.381Z,8.77
2017-07-28T04:41:36.802Z,9.70
2017-07-28T04:44:05.109Z,8.80
2017-07-28T04:46:33.829Z,7.37
2017-07-28T04:49:02.136Z,8.83
2017-07-28T04:51:30.443Z,11.13
2017-07-28T04:53:59.843Z,10.27
2017-07-28T04:56:28.167Z,11.73
2017-07-28T04:58:58.576Z,12.53
2017-07-28T05:01:27.273Z,11.13
2017-07-28T05:03:55.610Z,11.57
2017-07-28T05:06:23.947Z,9.53
2017-07-28T05:08:52.654Z,10.43
2017-07-28T05:11:21.045Z,11.10
2017-07-28T05:13:49.449Z,10.63
2017-07-28T05:16:18.465Z,8.77
2017-07-28T05:18:46.948Z,9.80
2017-07-28T05:21:15.786Z,8.97
2017-07-28T05:23:44.906Z,8.93
2017-07-28T05:26:13.672Z,8.27
2017-07-28T05:28:43.275Z,8.77
2017-07-28T05:31:13.950Z,8.30
2017-07-28T05:33:42.988Z,8.90
2017-07-28T05:36:12.436Z,7.63
2017-07-28T05:38:42.087Z,8.93
2017-07-28T05:41:12.172Z,8.27
2017-07-28T05:43:41.309Z,7.90
2017-07-28T05:46:13.398Z,6.90
2017-07-28T05:48:42.859Z,7.00
2017-07-28T05:51:12.400Z,6.90
2017-07-28T05:53:42.103Z,6.87
2017-07-28T05:56:11.468Z,7.73
2017-07-28T05:58:40.756Z,6.13
2017-07-28T06:01:11.421Z,7.30
2017-07-28T06:03:41.139Z,4.80
2017-07-28T06:06:10.680Z,6.60
2017-07-28T06:08:40.037Z,6.20
2017-07-28T06:11:08.738Z,4.70
2017-07-28T06:13:38.485Z,5.13
2017-07-28T06:16:07.999Z,4.37
2017-07-28T06:18:36.404Z,3.90
2017-07-28T06:21:04.744Z,4.77
2017-07-28T06:23:33.384Z,5.33
2017-07-28T06:26:01.715Z,3.67
2017-07-28T06:28:30.059Z,3.33
2017-07-28T06:30:59.214Z,3.27
2017-07-28T06:33:27.545Z,4.20
2017-07-28T06:35:55.982Z,3.10
2017-07-28T06:38:24.644Z,3.43
2017-07-28T06:40:53.168Z,3.83
2017-07-28T06:43:22.462Z,4.37
2017-07-28T06:45:51.928Z,2.63
2017-07-28T06:48:20.446Z,4.07
2017-07-28T06:50:49.787Z,3.20
2017-07-28T06:53:18.805Z,3.50
2017-07-28T06:55:48.121Z,3.17
2017-07-28T06:58:16.620Z,3.10
2017-07-28T07:00:46.678Z,3.80
2017-07-28T07:03:16.302Z,3.20
2017-07-28T07:05:45.218Z,3.33
2017-07-28T07:08:14.119Z,3.30
2017-07-28T07:10:42.826Z,2.77
2017-07-28T07:13:11.517Z,3.20
2017-07-28T07:15:41.413Z,3.30
2017-07-28T07:18:10.741Z,3.57
2017-07-28T07:20:39.303Z,3.50
2017-07-28T07:23:08.243Z,4.10
2017-07-28T07:25:36.865Z,4.23
2017-07-28T07:28:05.213Z,4.27
2017-07-28T07:30:34.864Z,3.03
2017-07-28T07:33:03.176Z,3.73
2017-07-28T07:35:31.551Z,2.83
2017-07-28T07:38:00.111Z,3.47
2017-07-28T07:40:28.621Z,3.30
2017-07-28T07:42:56.949Z,3.30
2017-07-28T07:45:26.141Z,3.67
2017-07-28T07:47:54.868Z,3.73
2017-07-28T07:50:23.326Z,3.23
2017-07-28T07:52:53.335Z,3.80
2017-07-28T07:55:23.499Z,3.70
2017-07-28T07:57:52.158Z,3.67
2017-07-28T08:00:21.102Z,2.80
2017-07-28T08:02:49.644Z,3.13
2017-07-28T08:05:19.687Z,4.27
2017-07-28T08:07:48.994Z,4.10
2017-07-28T08:10:18.525Z,3.23
2017-07-28T08:12:47.352Z,4.30
2017-07-28T08:15:17.764Z,3.07
2017-07-28T08:17:46.602Z,3.67
2017-07-28T08:20:15.737Z,4.37
2017-07-28T08:22:46.667Z,3.07
2017-07-28T08:25:15.962Z,3.00
2017-07-28T08:27:44.873Z,4.30
2017-07-28T08:30:13.739Z,3.83
2017-07-28T08:32:42.499Z,5.80
2017-07-28T08:35:11.123Z,4.80
2017-07-28T08:37:41.052Z,4.17
2017-07-28T08:40:09.942Z,3.13
2017-07-28T08:42:39.686Z,4.60
2017-07-28T08:45:09.365Z,4.00
2017-07-28T08:47:38.750Z,4.33
2017-07-28T08:50:07.957Z,3.90
2017-07-28T08:52:36.815Z,4.47
2017-07-28T08:55:05.210Z,5.37
2017-07-28T08:57:33.772Z,2.83
2017-07-28T09:00:02.555Z,3.83
2017-07-28T09:02:30.871Z,3.43
2017-07-28T09:04:59.188Z,4.10
2017-07-28T09:07:27.970Z,3.73
2017-07-28T09:09:56.301Z,5.67
2017-07-28T09:12:24.881Z,5.30
2017-07-28T09:14:54.469Z,4.37
2017-07-28T09:17:22.776Z,3.37
2017-07-28T09:19:52.049Z,3.53
2017-07-28T09:22:21.897Z,4.60
2017-07-28T09:24:50.258Z,3.00
2017-07-28T09:27:20.100Z,3.97
2017-07-28T09:29:49.924Z,4.23
2017-07-28T09:32:18.625Z,3.73
2017-07-28T09:34:47.404Z,3.40
2017-07-28T09:37:16.332Z,3.73
2017-07-28T09:39:45.101Z,2.77
2017-07-28T09:42:14.947Z,3.80
2017-07-28T09:44:44.152Z,2.87
2017-07-28T09:47:12.816Z,2.73
2017-07-28T09:49:41.580Z,3.27
2017-07-28T09:52:11.483Z,3.90
2017-07-28T09:54:41.891Z,3.10
2017-07-28T09:57:11.971Z,3.00
2017-07-28T09:59:42.572Z,2.90
2017-07-28T10:02:12.687Z,2.73
2017-07-28T10:04:42.051Z,2.80
2017-07-28T10:07:11.426Z,3.07
2017-07-28T10:09:40.962Z,2.87
2017-07-28T10:12:11.348Z,2.93
2017-07-28T10:14:40.613Z,3.37
2017-07-28T10:17:09.407Z,2.40
2017-07-28T10:19:37.792Z,3.27
2017-07-28T10:22:07.115Z,2.20
2017-07-28T10:24:36.499Z,2.90
2017-07-28T10:27:04.837Z,2.77
2017-07-28T10:29:33.331Z,3.10
2017-07-28T10:32:01.640Z,2.50
2017-07-28T10:34:30.729Z,2.40
2017-07-28T10:36:59.401Z,2.57
2017-07-28T10:39:28.002Z,2.70
2017-07-28T10:41:56.612Z,2.50
2017-07-28T10:44:25.985Z,2.57
2017-07-28T10:46:54.430Z,3.33
2017-07-28T10:49:22.872Z,3.10
2017-07-28T10:51:51.543Z,2.90
2017-07-28T10:54:20.162Z,2.30
2017-07-28T10:56:48.765Z,2.23
2017-07-28T10:59:18.229Z,2.50
2017-07-28T11:01:46.779Z,2.70
2017-07-28T11:04:15.803Z,2.10
2017-07-28T11:06:44.759Z,2.47
2017-07-28T11:09:13.213Z,2.80
2017-07-28T11:11:42.721Z,3.20
2017-07-28T11:14:11.431Z,2.60
2017-07-28T11:16:40.632Z,3.00
2017-07-28T11:19:09.413Z,3.30
2017-07-28T11:21:38.407Z,3.73
2017-07-28T11:24:06.797Z,2.60
2017-07-28T11:26:35.134Z,2.27
2017-07-28T11:29:03.849Z,1.60
2017-07-28T11:31:32.200Z,1.20
2017-07-28T11:34:00.608Z,1.80
2017-07-28T11:36:29.265Z,1.87
2017-07-28T11:38:57.590Z,2.03
2017-07-28T11:41:25.985Z,1.80
2017-07-28T11:43:55.510Z,2.17
2017-07-28T11:46:23.969Z,1.23
2017-07-28T11:48:52.577Z,2.00
2017-07-28T11:51:21.753Z,1.80
2017-07-28T11:53:50.419Z,1.63
2017-07-28T11:56:18.911Z,1.83
2017-07-28T11:58:48.672Z,3.50
2017-07-28T12:01:17.398Z,2.17
2017-07-28T12:03:45.822Z,2.17
2017-07-28T12:06:16.019Z,3.33
2017-07-28T12:08:44.561Z,2.20
2017-07-28T12:11:13.305Z,1.40
2017-07-28T12:13:42.280Z,2.13
2017-07-28T12:16:10.985Z,1.90
2017-07-28T12:18:40.437Z,2.10
2017-07-28T12:21:09.990Z,1.23
2017-07-28T12:23:38.805Z,1.33
2017-07-28T12:26:07.986Z,1.57
2017-07-28T12:28:39.177Z,1.20
2017-07-28T12:31:07.866Z,1.50
2017-07-28T12:33:36.309Z,1.40
2017-07-28T12:36:05.765Z,1.60
2017-07-28T12:38:34.076Z,2.13
2017-07-28T12:41:02.493Z,1.00
2017-07-28T12:43:31.231Z,1.20
2017-07-28T12:45:59.608Z,2.03
2017-07-28T12:48:27.961Z,1.60
2017-07-28T12:50:57.109Z,1.60
2017-07-28T12:53:25.925Z,1.50
2017-07-28T12:55:54.560Z,2.50
2017-07-28T12:58:23.522Z,1.90
2017-07-28T13:00:52.189Z,2.17
2017-07-28T13:03:20.763Z,1.30
2017-07-28T13:05:49.790Z,1.97
2017-07-28T13:08:18.441Z,2.20
2017-07-28T13:10:46.977Z,1.73
2017-07-28T13:13:16.811Z,2.10
2017-07-28T13:15:46.335Z,2.10
2017-07-28T13:18:15.939Z,1.73
2017-07-28T13:20:44.998Z,1.87
2017-07-28T13:23:13.416Z,2.00
2017-07-28T13:25:42.329Z,1.83
2017-07-28T13:28:12.183Z,1.77
2017-07-28T13:30:41.079Z,2.33
2017-07-28T13:33:11.458Z,2.90
2017-07-28T13:35:40.672Z,1.70
2017-07-28T13:38:10.547Z,1.93
2017-07-28T13:40:39.072Z,2.90
2017-07-28T13:43:07.831Z,1.87
2017-07-28T13:45:36.214Z,1.73
2017-07-28T13:48:04.738Z,2.00
2017-07-28T13:50:33.329Z,1.90
2017-07-28T13:53:03.678Z,2.33
2017-07-28T13:55:31.980Z,2.13
2017-07-28T13:58:01.333Z,1.67
2017-07-28T14:00:30.430Z,2.07
2017-07-28T14:02:58.755Z,1.83
2017-07-28T14:05:27.494Z,1.73
2017-07-28T14:07:56.009Z,1.97
2017-07-28T14:10:24.539Z,2.10
2017-07-28T14:12:53.789Z,2.00
2017-07-28T14:15:22.337Z,2.37
2017-07-28T14:17:51.654Z,2.90
2017-07-28T14:20:20.475Z,2.60
2017-07-28T14:22:50.159Z,2.60
2017-07-28T14:25:18.986Z,2.47
2017-07-28T14:27:47.938Z,3.50
2017-07-28T14:30:16.471Z,1.97
2017-07-28T14:32:44.928Z,2.63
2017-07-28T14:35:14.290Z,2.37
2017-07-28T14:37:42.889Z,2.10
2017-07-28T14:40:11.499Z,1.93
2017-07-28T14:42:40.333Z,2.63
2017-07-28T14:45:08.711Z,2.10
2017-07-28T14:47:37.882Z,1.90
2017-07-28T14:50:07.252Z,2.60
2017-07-28T14:52:35.583Z,2.00
2017-07-28T14:55:03.906Z,1.90
2017-07-28T14:57:33.668Z,2.33
2017-07-28T15:00:02.025Z,3.00
2017-07-28T15:02:30.354Z,2.27
2017-07-28T15:04:59.996Z,3.00
2017-07-28T15:07:29.441Z,3.77
2017-07-28T15:09:57.779Z,2.63
2017-07-28T15:12:26.518Z,4.20
2017-07-28T15:14:54.912Z,3.73
2017-07-28T15:17:23.794Z,3.30
2017-07-28T15:19:54.725Z,3.40
2017-07-28T15:22:23.165Z,5.17
2017-07-28T15:24:52.838Z,3.20
2017-07-28T15:27:21.866Z,3.83
2017-07-28T15:29:50.443Z,3.17
2017-07-28T15:32:19.449Z,3.60
2017-07-28T15:34:49.229Z,3.20
2017-07-28T15:37:18.014Z,3.40
2017-07-28T15:39:46.987Z,3.00
2017-07-28T15:42:15.862Z,3.70
2017-07-28T15:44:44.612Z,2.73
2017-07-28T15:47:13.364Z,3.67
2017-07-28T15:49:42.528Z,3.07
2017-07-28T15:52:11.874Z,2.70
2017-07-28T15:54:41.370Z,3.00
2017-07-28T15:57:10.331Z,2.63
2017-07-28T15:59:38.639Z,2.70
2017-07-28T16:02:07.042Z,2.77
2017-07-28T16:04:36.161Z,2.50
2017-07-28T16:07:04.456Z,2.07
2017-07-28T16:09:32.789Z,2.47
2017-07-28T16:12:03.190Z,2.63
2017-07-28T16:14:31.504Z,2.83
2017-07-28T16:16:59.827Z,2.70
2017-07-28T16:19:28.195Z,3.23
2017-07-28T16:21:57.691Z,2.23
2017-07-28T16:24:26.058Z,2.30
2017-07-28T16:26:54.799Z,2.17
2017-07-28T16:29:23.411Z,2.53
2017-07-28T16:31:52.273Z,2.20
2017-07-28T16:34:21.699Z,2.20
2017-07-28T16:36:50.836Z,2.03
2017-07-28T16:39:19.336Z,2.47
2017-07-28T16:41:48.766Z,3.27
2017-07-28T16:44:17.236Z,1.77
2017-07-28T16:46:45.677Z,3.07
2017-07-28T16:49:14.763Z,2.17
2017-07-28T16:51:43.573Z,1.90
2017-07-28T16:54:12.414Z,1.90
2017-07-28T16:56:41.344Z,2.00
2017-07-28T16:59:10.712Z,3.33
2017-07-28T17:01:40.148Z,2.33
2017-07-28T17:04:09.380Z,1.93
2017-07-28T17:06:37.740Z,2.73
2017-07-28T17:09:06.108Z,1.90
2017-07-28T17:11:35.344Z,2.60
2017-07-28T17:14:03.657Z,2.30
2017-07-28T17:16:32.043Z,2.47
2017-07-28T17:19:01.333Z,2.63
2017-07-28T17:21:30.446Z,2.10
2017-07-28T17:23:59.000Z,2.70
2017-07-28T17:26:28.457Z,2.90
2017-07-28T17:28:56.785Z,3.90
2017-07-28T17:31:25.125Z,2.20
2017-07-28T17:33:53.638Z,4.53
2017-07-28T17:36:22.095Z,4.03
2017-07-28T17:38:50.692Z,2.93
2017-07-28T17:41:19.933Z,3.20
2017-07-28T17:43:48.416Z,3.70
2017-07-28T17:46:16.906Z,3.10
2017-07-28T17:48:45.854Z,3.30
2017-07-28T17:51:14.282Z,4.33
2017-07-28T17:53:42.869Z,3.10
2017-07-28T17:56:11.563Z,3.47
2017-07-28T17:58:40.921Z,3.07
2017-07-28T18:01:09.595Z,5.60
2017-07-28T18:03:37.995Z,5.27
2017-07-28T18:06:06.341Z,5.70
2017-07-28T18:08:34.669Z,5.17
2017-07-28T18:11:03.658Z,3.43
2017-07-28T18:13:31.981Z,3.87
2017-07-28T18:16:00.367Z,5.23
2017-07-28T18:18:29.083Z,4.67
2017-07-28T18:20:57.428Z,6.60
2017-07-28T18:23:25.828Z,3.67
2017-07-28T18:25:54.320Z,3.80
2017-07-28T18:28:23.433Z,3.90
2017-07-28T18:30:51.805Z,2.93
2017-07-28T18:33:20.585Z,2.33
2017-07-28T18:35:49.123Z,4.83
2017-07-28T18:38:17.762Z,3.23
2017-07-28T18:40:47.596Z,4.57
2017-07-28T18:43:16.307Z,3.93
2017-07-28T18:45:45.689Z,5.67
2017-07-28T18:48:14.319Z,3.27
2017-07-28T18:50:42.991Z,4.43
2017-07-28T18:53:11.420Z,4.10
2017-07-28T18:55:41.510Z,4.87
2017-07-28T18:58:11.056Z,3.90
2017-07-28T19:00:39.668Z,4.47
2017-07-28T19:03:09.265Z,2.73
2017-07-28T19:05:37.725Z,4.43
2017-07-28T19:08:07.369Z,3.10
2017-07-28T19:10:36.800Z,3.00
2017-07-28T19:13:05.176Z,4.00
2017-07-28T19:15:33.534Z,2.53
2017-07-28T19:18:02.454Z,4.67
2017-07-28T19:20:30.853Z,2.63
2017-07-28T19:22:59.249Z,4.27
2017-07-28T19:25:28.427Z,4.27
2017-07-28T19:27:57.946Z,4.27
2017-07-28T19:30:27.037Z,3.80
2017-07-28T19:32:55.988Z,6.10
2017-07-28T19:35:25.121Z,5.67
2017-07-28T19:37:53.485Z,3.53
2017-07-28T19:40:22.455Z,3.40
2017-07-28T19:42:50.885Z,3.97
2017-07-28T19:45:20.421Z,6.47
2017-07-28T19:47:49.348Z,5.17
2017-07-28T19:50:18.595Z,3.10
2017-07-28T19:52:48.653Z,4.07
2017-07-28T19:55:17.660Z,4.33
2017-07-28T19:57:46.156Z,3.40
2017-07-28T20:00:14.808Z,4.00
2017-07-28T20:02:44.501Z,4.33
2017-07-28T20:05:13.095Z,4.90
2017-07-28T20:07:41.656Z,5.50
2017-07-28T20:10:11.504Z,4.00
2017-07-28T20:12:41.271Z,4.43
2017-07-28T20:15:09.887Z,4.67
2017-07-28T20:17:39.078Z,4.00
2017-07-28T20:20:07.457Z,4.50
2017-07-28T20:22:35.830Z,4.17
2017-07-28T20:25:04.398Z,4.60
2017-07-28T20:27:32.715Z,6.63
2017-07-28T20:30:01.190Z,4.33
2017-07-28T20:32:31.603Z,3.43
2017-07-28T20:34:59.978Z,4.23
2017-07-28T20:37:28.308Z,4.33
2017-07-28T20:39:56.736Z,3.60
2017-07-28T20:42:25.095Z,10.47
2017-07-28T20:44:54.198Z,4.97
2017-07-28T20:47:24.563Z,6.10
2017-07-28T20:49:52.885Z,4.43
2017-07-28T20:52:21.212Z,4.97
2017-07-28T20:54:50.783Z,10.20
2017-07-28T20:57:19.378Z,4.53
2017-07-28T20:59:48.520Z,4.00
2017-07-28T21:02:17.312Z,4.40
2017-07-28T21:04:45.776Z,4.90
2017-07-28T21:07:16.231Z,4.83
2017-07-28T21:09:44.950Z,4.43
2017-07-28T21:12:13.537Z,6.30
2017-07-28T21:14:42.876Z,3.90
2017-07-28T21:17:11.469Z,6.93
2017-07-28T21:19:40.141Z,6.53
2017-07-28T21:22:08.691Z,5.90
2017-07-28T21:24:37.811Z,5.20
2017-07-28T21:27:06.161Z,4.07
2017-07-28T21:29:34.490Z,3.73
2017-07-28T21:32:04.620Z,5.80
2017-07-28T21:34:32.954Z,6.07
2017-07-28T21:37:01.264Z,4.70
2017-07-28T21:39:30.066Z,5.60
2017-07-28T21:41:58.385Z,4.70
2017-07-28T21:44:26.724Z,5.67
2017-07-28T21:46:56.564Z,4.43
2017-07-28T21:49:26.258Z,6.80
2017-07-28T21:51:55.119Z,5.13
2017-07-28T21:54:23.901Z,5.30
2017-07-28T21:56:52.223Z,5.23
2017-07-28T21:59:20.911Z,8.00
2017-07-28T22:01:49.665Z,7.23
2017-07-28T22:04:18.265Z,6.63
2017-07-28T22:06:46.763Z,6.50
2017-07-28T22:09:15.661Z,5.60
2017-07-28T22:11:44.237Z,6.43
2017-07-28T22:14:13.198Z,6.63
2017-07-28T22:16:42.654Z,6.80
2017-07-28T22:19:11.673Z,6.30
2017-07-28T22:21:40.393Z,7.90
2017-07-28T22:24:10.662Z,8.67
2017-07-28T22:26:39.167Z,8.50
2017-07-28T22:29:07.762Z,8.90
2017-07-28T22:31:37.121Z,8.60
2017-07-28T22:34:06.261Z,7.50
2017-07-28T22:36:34.597Z,7.43
2017-07-28T22:39:04.277Z,8.13
2017-07-28T22:41:32.625Z,6.23
2017-07-28T22:44:00.954Z,7.00
2017-07-28T22:46:31.900Z,8.40
2017-07-28T22:49:01.237Z,13.13
2017-07-28T22:51:29.582Z,7.67
2017-07-28T22:53:58.769Z,5.60
2017-07-28T22:56:27.156Z,5.93
2017-07-28T22:58:55.579Z,10.13
2017-07-28T23:01:24.353Z,9.30
2017-07-28T23:03:52.771Z,6.30
2017-07-28T23:06:21.222Z,5.47
2017-07-28T23:08:50.933Z,5.40
2017-07-28T23:11:19.423Z,5.07
2017-07-28T23:13:47.901Z,6.40
2017-07-28T23:16:16.689Z,5.63
2017-07-28T23:18:45.190Z,5.13
2017-07-28T23:21:13.918Z,5.77
2017-07-28T23:23:43.739Z,6.23
2017-07-28T23:26:13.359Z,6.57
2017-07-28T23:28:42.005Z,4.87
2017-07-28T23:31:11.587Z,4.33
2017-07-28T23:33:44.503Z,4.27
2017-07-28T23:36:15.718Z,6.33
2017-07-28T23:38:44.413Z,4.57
2017-07-28T23:41:12.853Z,4.80
2017-07-28T23:43:41.605Z,5.53
2017-07-28T23:46:10.272Z,5.93
2017-07-28T23:48:38.810Z,4.90
2017-07-28T23:51:07.774Z,6.07
2017-07-28T23:53:36.100Z,4.40
2017-07-28T23:56:04.455Z,5.30
2017-07-28T23:58:33.039Z,7.60
